Time;durP1;ratioP1;P1;durP2;ratioP2;P2;SDS_P1;SDS_P2;PMS_P1;PMS_P2;Temp;Humidity;BMP_temperature;BMP_pressure;BME280_temperature;BME280_humidity;BME280_pressure;Samples;Min_cycle;Max_cycle;Signal;HPM_P1;HPM_P2
2021/12/16 00:01:47;;;;;;;0.60;0.60;;;5.80;99.90;;;;;;5245094;28;20036;-78
2021/12/16 00:34:52;;;;;;;0.80;0.80;;;6.10;99.90;;;;;;5243875;28;20056;-76
2021/12/16 00:37:26;;;;;;;0.95;0.95;;;6.10;99.90;;;;;;5265834;28;20035;-78
2021/12/16 00:40:04;;;;;;;0.93;0.93;;;6.10;99.90;;;;;;5244985;28;20390;-78
2021/12/16 00:42:49;;;;;;;0.50;0.50;;;6.20;99.90;;;;;;5244378;28;20111;-77
2021/12/16 00:45:37;;;;;;;0.60;0.60;;;6.10;99.90;;;;;;5242626;28;20476;-77
2021/12/16 00:56:17;;;;;;;1.10;1.10;;;6.20;99.90;;;;;;5263710;28;20578;-76
2021/12/16 00:58:55;;;;;;;0.70;0.70;;;6.20;99.90;;;;;;5264018;28;20024;-76
2021/12/16 01:01:43;;;;;;;0.50;0.50;;;6.30;99.90;;;;;;5251575;28;20039;-77
2021/12/16 01:48:07;;;;;;;0.60;0.60;;;6.20;99.90;;;;;;5243405;28;20107;-76
2021/12/16 01:50:31;;;;;;;0.75;0.75;;;6.20;99.90;;;;;;5265656;28;20046;-76
2021/12/16 01:56:42;;;;;;;0.52;0.52;;;6.30;99.90;;;;;;5184901;28;20335;-76
2021/12/16 01:59:19;;;;;;;0.88;0.88;;;6.20;99.90;;;;;;5171132;28;20542;-76
2021/12/16 02:02:04;;;;;;;0.60;0.60;;;6.30;99.90;;;;;;5208879;28;20670;-75
2021/12/16 02:05:32;;;;;;;0.70;0.70;;;6.20;99.90;;;;;;5202196;28;20104;-78
2021/12/16 02:10:33;;;;;;;0.80;0.80;;;6.30;99.90;;;;;;5200903;28;20049;-76
2021/12/16 02:35:59;;;;;;;1.17;1.17;;;6.10;99.90;;;;;;5181087;28;20052;-77
2021/12/16 02:38:36;;;;;;;0.68;0.68;;;6.20;99.90;;;;;;5183745;28;20068;-76
2021/12/16 02:41:10;;;;;;;0.73;0.73;;;6.10;99.90;;;;;;5181410;28;20033;-76
2021/12/16 02:49:26;;;;;;;0.80;0.80;;;6.10;99.90;;;;;;5183179;28;20037;-78
2021/12/16 02:52:00;;;;;;;0.70;0.70;;;6.10;99.90;;;;;;5178955;28;20570;-77
2021/12/16 02:54:34;;;;;;;0.77;0.77;;;6.20;99.90;;;;;;5165208;28;20484;-79
2021/12/16 02:57:18;;;;;;;0.68;0.68;;;6.10;99.90;;;;;;5202510;28;20060;-76
2021/12/16 02:59:52;;;;;;;2.10;2.00;;;6.10;99.90;;;;;;5204290;28;20441;-77
2021/12/16 03:02:25;;;;;;;0.50;0.50;;;6.10;99.90;;;;;;5220672;28;20064;-77
2021/12/16 03:04:56;;;;;;;1.17;1.17;;;6.10;99.90;;;;;;5205676;28;20504;-77
2021/12/16 03:07:33;;;;;;;0.60;0.60;;;6.10;99.90;;;;;;5223042;28;20070;-77
2021/12/16 03:21:24;;;;;;;0.80;0.80;;;6.00;99.90;;;;;;5262842;28;20329;-78
2021/12/16 03:24:24;;;;;;;0.70;0.70;;;6.00;99.90;;;;;;5277309;28;20039;-78
2021/12/16 03:38:27;;;;;;;0.40;0.40;;;5.90;99.90;;;;;;5157386;28;20030;-77
2021/12/16 03:41:01;;;;;;;0.90;0.90;;;5.90;99.90;;;;;;5156402;28;20058;-75
2021/12/16 03:43:36;;;;;;;0.60;0.60;;;5.90;99.90;;;;;;5160363;28;20065;-76
2021/12/16 03:46:27;;;;;;;1.75;1.73;;;5.90;99.90;;;;;;5160780;28;20069;-76
2021/12/16 03:49:09;;;;;;;0.40;0.40;;;5.90;99.90;;;;;;5185428;28;20041;-77
2021/12/16 03:51:54;;;;;;;0.80;0.80;;;5.90;99.90;;;;;;5179468;28;20047;-76
2021/12/16 03:54:32;;;;;;;0.70;0.70;;;5.90;99.90;;;;;;5196683;28;20033;-76
2021/12/16 03:57:07;;;;;;;0.52;0.52;;;5.90;99.90;;;;;;5212730;28;20040;-76
2021/12/16 03:59:52;;;;;;;0.70;0.70;;;5.90;99.90;;;;;;5217321;28;20033;-76
2021/12/16 04:02:32;;;;;;;0.88;0.88;;;5.90;99.90;;;;;;5220006;28;20045;-77
2021/12/16 04:05:13;;;;;;;0.60;0.60;;;5.90;99.90;;;;;;5221529;28;20044;-76
2021/12/16 04:07:50;;;;;;;0.95;0.95;;;5.90;99.90;;;;;;5221133;28;20029;-77
2021/12/16 04:11:04;;;;;;;0.50;0.50;;;5.90;99.90;;;;;;5201101;28;20032;-76
2021/12/16 04:13:52;;;;;;;0.90;0.90;;;6.00;99.90;;;;;;5256200;28;20157;-76
2021/12/16 04:16:40;;;;;;;0.95;0.95;;;6.00;99.90;;;;;;5228740;28;20033;-77
2021/12/16 04:19:19;;;;;;;0.63;0.63;;;6.00;99.90;;;;;;5242735;28;20036;-76
2021/12/16 04:22:02;;;;;;;0.70;0.70;;;6.00;99.90;;;;;;5263574;28;20024;-76
2021/12/16 04:24:37;;;;;;;0.60;0.60;;;6.00;99.90;;;;;;5268847;28;20375;-76
2021/12/16 04:27:08;;;;;;;;;;;6.00;99.90;;;;;;5228255;28;20052;-76
2021/12/16 04:29:44;;;;;;;0.77;0.77;;;6.00;99.90;;;;;;5244200;28;19916;-76
2021/12/16 04:32:17;;;;;;;0.70;0.70;;;6.00;99.90;;;;;;5242571;28;20502;-78
2021/12/16 04:34:53;;;;;;;0.43;0.43;;;6.00;99.90;;;;;;5226415;28;20330;-76
2021/12/16 04:37:24;;;;;;;0.77;0.77;;;6.00;99.90;;;;;;5244152;28;20070;-75
2021/12/16 04:39:58;;;;;;;1.23;1.23;;;5.90;99.90;;;;;;5269603;28;20049;-76
2021/12/16 04:42:31;;;;;;;0.68;0.68;;;5.90;99.90;;;;;;5285038;28;20099;-77
2021/12/16 04:45:11;;;;;;;0.50;0.50;;;5.90;99.90;;;;;;5271617;28;20023;-76
2021/12/16 04:47:42;;;;;;;0.55;0.55;;;5.90;99.90;;;;;;5290867;28;20098;-76
2021/12/16 04:50:14;;;;;;;0.65;0.65;;;5.90;99.90;;;;;;5279808;28;20051;-76
2021/12/16 04:52:48;;;;;;;0.77;0.77;;;5.90;99.90;;;;;;5287257;28;20034;-76
2021/12/16 04:55:20;;;;;;;0.73;0.73;;;5.90;99.90;;;;;;5285688;28;20526;-77
2021/12/16 04:57:52;;;;;;;1.23;1.23;;;5.80;99.90;;;;;;5285671;28;20363;-76
2021/12/16 05:00:25;;;;;;;0.70;0.70;;;5.80;99.90;;;;;;5268755;28;20035;-76
2021/12/16 05:02:59;;;;;;;0.75;0.75;;;5.80;99.90;;;;;;5283068;28;20066;-76
2021/12/16 05:05:38;;;;;;;0.70;0.70;;;5.80;99.90;;;;;;5285584;28;20034;-77
2021/12/16 05:08:14;;;;;;;0.68;0.68;;;5.80;99.90;;;;;;5284563;28;20096;-77
2021/12/16 05:10:50;;;;;;;2.72;1.40;;;5.80;99.90;;;;;;5285417;28;20028;-77
2021/12/16 05:13:25;;;;;;;0.80;0.80;;;5.80;99.90;;;;;;5284687;28;20027;-77
2021/12/16 05:16:05;;;;;;;2.10;1.85;;;5.80;99.90;;;;;;5283353;27;20038;-77
2021/12/16 05:18:39;;;;;;;0.77;0.77;;;5.80;99.90;;;;;;5283579;28;20020;-77
2021/12/16 05:26:51;;;;;;;0.75;0.75;;;5.80;99.90;;;;;;5284240;28;20034;-76
2021/12/16 05:29:24;;;;;;;0.82;0.82;;;5.70;99.90;;;;;;5284554;28;20019;-75
2021/12/16 05:31:56;;;;;;;0.85;0.85;;;5.70;99.90;;;;;;5284430;28;20032;-76
2021/12/16 05:34:31;;;;;;;1.02;1.02;;;5.70;99.90;;;;;;5283548;28;20062;-77
2021/12/16 05:37:08;;;;;;;0.80;0.80;;;5.70;99.90;;;;;;5283675;28;20028;-76
2021/12/16 05:39:41;;;;;;;0.50;0.50;;;5.70;99.90;;;;;;5280360;28;20040;-76
2021/12/16 05:42:16;;;;;;;0.50;0.50;;;5.70;99.90;;;;;;5263184;28;20492;-77
2021/12/16 05:44:52;;;;;;;0.98;0.98;;;5.60;99.90;;;;;;5262912;28;20095;-76
2021/12/16 05:47:23;;;;;;;1.38;1.27;;;5.60;99.90;;;;;;5260419;28;20040;-76
2021/12/16 05:49:54;;;;;;;0.50;0.50;;;5.50;99.90;;;;;;5260303;28;20051;-76
2021/12/16 05:52:33;;;;;;;0.85;0.85;;;5.50;99.90;;;;;;5262762;28;20095;-76
2021/12/16 05:55:10;;;;;;;0.60;0.60;;;5.50;99.90;;;;;;5263717;28;20345;-76
2021/12/16 05:57:43;;;;;;;0.70;0.70;;;5.50;99.90;;;;;;5263209;28;20098;-78
2021/12/16 06:00:28;;;;;;;0.47;0.47;;;5.40;99.90;;;;;;5250019;28;20028;-76
2021/12/16 06:03:04;;;;;;;0.88;0.88;;;5.40;99.90;;;;;;5245913;28;20440;-76
2021/12/16 06:05:36;;;;;;;0.77;0.77;;;5.40;99.90;;;;;;5244867;28;20040;-76
2021/12/16 06:08:10;;;;;;;0.68;0.68;;;5.40;99.90;;;;;;5263071;28;20073;-76
2021/12/16 06:13:23;;;;;;;0.70;0.70;;;5.40;99.90;;;;;;5242940;28;20044;-76
2021/12/16 06:27:13;;;;;;;0.60;0.60;;;5.30;99.90;;;;;;5282676;28;20338;-77
2021/12/16 06:29:49;;;;;;;0.80;0.80;;;5.20;99.90;;;;;;5283238;28;20088;-77
2021/12/16 06:32:22;;;;;;;0.60;0.60;;;5.20;99.90;;;;;;5266724;28;20028;-77
2021/12/16 06:34:57;;;;;;;0.68;0.68;;;5.10;99.90;;;;;;5263678;28;20486;-76
2021/12/16 06:37:31;;;;;;;0.60;0.60;;;5.10;99.90;;;;;;5244597;28;20035;-76
2021/12/16 06:40:05;;;;;;;0.85;0.85;;;5.10;99.90;;;;;;5218838;28;20557;-77
2021/12/16 06:42:39;;;;;;;0.90;0.90;;;5.00;99.90;;;;;;5260939;28;20075;-76
2021/12/16 06:45:27;;;;;;;0.80;0.80;;;5.00;99.90;;;;;;5279613;28;20030;-77
2021/12/16 06:48:04;;;;;;;0.50;0.50;;;5.00;99.90;;;;;;5281207;28;20575;-76
2021/12/16 06:50:52;;;;;;;0.40;0.40;;;5.00;99.90;;;;;;5262377;28;20039;-77
2021/12/16 06:53:47;;;;;;;0.65;0.65;;;5.10;99.90;;;;;;5267915;28;20032;-78
2021/12/16 06:59:35;;;;;;;0.60;0.60;;;5.00;99.90;;;;;;5206134;28;20053;-76
2021/12/16 07:02:31;;;;;;;1.05;1.05;;;4.90;99.90;;;;;;5203610;28;20183;-76
2021/12/16 07:05:07;;;;;;;0.50;0.50;;;5.00;99.90;;;;;;5204143;28;20017;-77
2021/12/16 07:07:44;;;;;;;0.80;0.80;;;5.00;99.90;;;;;;5235358;28;20104;-77
2021/12/16 07:10:24;;;;;;;2.08;1.92;;;5.00;99.90;;;;;;5197723;28;20096;-76
2021/12/16 07:13:06;;;;;;;1.15;1.15;;;5.10;99.90;;;;;;5189403;28;20094;-77
2021/12/16 07:15:39;;;;;;;1.08;1.08;;;5.10;99.90;;;;;;5201998;28;20046;-76
2021/12/16 07:18:15;;;;;;;0.77;0.77;;;5.10;99.90;;;;;;5200962;28;20082;-76
2021/12/16 07:20:52;;;;;;;0.70;0.70;;;5.10;99.90;;;;;;5218739;28;20033;-77
2021/12/16 07:23:28;;;;;;;0.50;0.50;;;5.20;99.90;;;;;;5201861;28;20056;-78
2021/12/16 07:26:04;;;;;;;0.43;0.43;;;5.20;99.90;;;;;;5227235;28;20021;-76
2021/12/16 07:28:40;;;;;;;1.15;1.15;;;5.20;99.90;;;;;;5205450;28;20044;-78
2021/12/16 07:31:11;;;;;;;1.15;1.15;;;5.30;99.90;;;;;;5222764;28;20032;-77
2021/12/16 07:33:48;;;;;;;0.70;0.70;;;5.20;99.90;;;;;;5204365;28;20285;-76
2021/12/16 07:36:23;;;;;;;1.35;0.95;;;5.20;99.90;;;;;;5271315;28;20352;-76
2021/12/16 07:38:54;;;;;;;0.82;0.82;;;5.10;99.90;;;;;;5232906;28;20068;-76
2021/12/16 07:41:33;;;;;;;0.45;0.45;;;5.10;99.90;;;;;;5266912;28;20037;-76
2021/12/16 07:44:16;;;;;;;0.80;0.80;;;5.10;99.90;;;;;;5260522;28;20077;-78
2021/12/16 07:46:59;;;;;;;0.60;0.60;;;5.10;99.90;;;;;;5266276;28;20074;-76
2021/12/16 07:49:42;;;;;;;0.50;0.50;;;5.00;99.90;;;;;;5264082;28;20044;-76
2021/12/16 07:52:24;;;;;;;0.50;0.50;;;5.00;99.90;;;;;;5246593;28;20032;-77
2021/12/16 07:54:56;;;;;;;0.98;0.98;;;5.10;99.90;;;;;;5253397;28;20024;-77
2021/12/16 07:57:29;;;;;;;0.60;0.60;;;5.10;99.90;;;;;;5261961;28;20032;-77
2021/12/16 08:00:20;;;;;;;0.85;0.85;;;5.10;99.90;;;;;;5231408;28;20020;-76
2021/12/16 08:02:53;;;;;;;0.65;0.65;;;5.10;99.90;;;;;;5245761;28;20073;-76
2021/12/16 08:05:35;;;;;;;0.85;0.85;;;5.10;99.90;;;;;;5263648;28;20036;-75
2021/12/16 08:08:09;;;;;;;0.70;0.70;;;5.00;99.90;;;;;;5245477;28;20091;-77
2021/12/16 08:10:43;;;;;;;0.50;0.50;;;5.00;99.90;;;;;;5261618;28;20327;-77
2021/12/16 08:13:19;;;;;;;0.60;0.60;;;5.00;99.90;;;;;;5258440;28;20083;-76
2021/12/16 08:15:51;;;;;;;0.60;0.60;;;5.00;99.90;;;;;;5262640;28;20035;-76
2021/12/16 08:18:26;;;;;;;0.50;0.50;;;5.00;99.90;;;;;;5245384;28;20562;-76
2021/12/16 08:21:02;;;;;;;0.40;0.40;;;5.10;99.90;;;;;;5260935;28;20210;-77
2021/12/16 08:23:44;;;;;;;1.05;1.00;;;5.10;99.90;;;;;;5281649;28;20383;-77
2021/12/16 08:26:18;;;;;;;0.55;0.55;;;5.10;99.90;;;;;;5247265;28;20099;-77
2021/12/16 08:28:52;;;;;;;0.68;0.68;;;5.10;99.90;;;;;;5268465;28;20032;-76
2021/12/16 08:31:30;;;;;;;0.50;0.50;;;5.00;99.90;;;;;;5284125;28;20086;-77
2021/12/16 08:34:03;;;;;;;0.73;0.73;;;5.00;99.90;;;;;;5284673;28;20087;-76
2021/12/16 08:36:40;;;;;;;1.15;1.15;;;5.00;99.90;;;;;;5259914;28;20028;-78
2021/12/16 08:39:14;;;;;;;0.57;0.57;;;5.10;99.90;;;;;;5258421;28;20020;-77
2021/12/16 08:41:57;;;;;;;0.60;0.60;;;5.20;99.90;;;;;;5283043;27;20552;-76
2021/12/16 08:44:34;;;;;;;0.50;0.50;;;5.20;99.90;;;;;;5288124;27;20027;-77
2021/12/16 08:47:13;;;;;;;0.60;0.60;;;5.40;99.90;;;;;;5295394;27;20019;-76
2021/12/16 08:49:45;;;;;;;0.43;0.43;;;5.40;99.90;;;;;;5286486;27;20103;-75
2021/12/16 08:52:21;;;;;;;0.40;0.40;;;5.40;99.90;;;;;;5280415;27;20034;-76
2021/12/16 08:54:52;;;;;;;;;;;5.30;99.90;;;;;;5307017;27;20031;-76
2021/12/16 08:57:35;;;;;;;0.65;0.65;;;5.20;99.90;;;;;;5269637;27;19915;-76
2021/12/16 09:00:19;;;;;;;0.70;0.70;;;5.20;99.90;;;;;;5306246;27;20027;-77
2021/12/16 09:02:53;;;;;;;0.68;0.68;;;5.20;99.90;;;;;;5283352;27;20035;-76
2021/12/16 09:05:25;;;;;;;0.73;0.73;;;5.20;99.90;;;;;;5275239;27;20031;-77
2021/12/16 09:08:07;;;;;;;0.70;0.70;;;5.10;99.90;;;;;;5288943;27;20031;-76
2021/12/16 09:10:41;;;;;;;0.70;0.70;;;5.10;99.90;;;;;;5286130;27;20200;-76
2021/12/16 09:13:15;;;;;;;0.93;0.93;;;5.00;99.90;;;;;;5289303;27;20047;-77
2021/12/16 09:15:57;;;;;;;0.70;0.70;;;5.10;99.90;;;;;;5307108;27;20023;-76
2021/12/16 09:18:34;;;;;;;0.60;0.60;;;5.20;99.90;;;;;;5288273;27;20039;-76
2021/12/16 09:21:15;;;;;;;0.40;0.40;;;5.30;99.90;;;;;;5287163;27;20027;-76
2021/12/16 09:23:47;;;;;;;0.77;0.77;;;5.40;99.90;;;;;;5272688;27;20030;-76
2021/12/16 09:26:18;;;;;;;0.52;0.52;;;5.40;99.90;;;;;;5326594;27;20065;-78
2021/12/16 09:28:57;;;;;;;0.40;0.40;;;5.40;99.90;;;;;;5326094;27;20046;-77
2021/12/16 09:31:29;;;;;;;0.43;0.43;;;5.30;99.90;;;;;;5325961;27;20522;-75
2021/12/16 09:34:08;;;;;;;0.65;0.65;;;5.30;99.90;;;;;;5301676;27;20357;-76
2021/12/16 09:36:45;;;;;;;0.70;0.70;;;5.30;99.90;;;;;;5287033;27;20492;-76
2021/12/16 09:39:21;;;;;;;0.70;0.70;;;5.30;99.90;;;;;;5270099;27;20023;-75
2021/12/16 09:41:58;;;;;;;0.40;0.40;;;5.40;99.90;;;;;;5298039;27;20043;-76
2021/12/16 09:44:36;;;;;;;0.50;0.50;;;5.40;99.90;;;;;;5287262;27;20548;-77
2021/12/16 09:47:15;;;;;;;0.70;0.70;;;5.50;99.90;;;;;;5288052;27;20045;-76
2021/12/16 09:49:46;;;;;;;0.80;0.80;;;5.60;99.90;;;;;;5289519;27;20501;-75
2021/12/16 09:52:21;;;;;;;0.50;0.50;;;5.70;99.90;;;;;;5292289;27;20026;-76
2021/12/16 09:54:55;;;;;;;0.52;0.52;;;5.70;99.90;;;;;;5284925;27;20026;-76
2021/12/16 09:57:29;;;;;;;0.60;0.60;;;5.80;99.90;;;;;;5285278;27;20034;-77
2021/12/16 10:00:01;;;;;;;0.52;0.52;;;5.80;99.90;;;;;;5286099;27;20047;-78
2021/12/16 10:02:32;;;;;;;0.32;0.32;;;5.80;99.90;;;;;;5286360;27;20080;-78
2021/12/16 10:05:09;;;;;;;0.40;0.40;;;5.90;99.90;;;;;;5267850;27;20023;-77
2021/12/16 10:07:43;;;;;;;0.40;0.40;;;6.00;99.90;;;;;;5281066;27;20052;-77
2021/12/16 10:10:24;;;;;;;0.60;0.60;;;6.10;99.90;;;;;;5311474;27;20038;-77
2021/12/16 10:13:03;;;;;;;0.50;0.50;;;6.10;99.90;;;;;;5286683;27;20034;-77
2021/12/16 10:18:24;;;;;;;0.50;0.50;;;6.10;99.90;;;;;;5286591;27;20031;-77
2021/12/16 10:21:07;;;;;;;0.70;0.70;;;6.10;99.90;;;;;;5267554;28;20031;-77
2021/12/16 10:23:44;;;;;;;0.40;0.40;;;6.10;99.90;;;;;;5267300;27;20035;-76
2021/12/16 10:26:22;;;;;;;0.93;0.93;;;6.10;99.90;;;;;;5285773;27;20425;-76
2021/12/16 10:28:58;;;;;;;0.40;0.40;;;6.00;99.90;;;;;;5287282;27;20026;-77
2021/12/16 10:31:35;;;;;;;0.50;0.50;;;6.00;99.90;;;;;;5287418;27;20035;-76
2021/12/16 10:34:10;;;;;;;0.73;0.73;;;6.00;99.90;;;;;;5304560;27;20046;-78
2021/12/16 10:36:48;;;;;;;0.63;0.63;;;6.00;99.90;;;;;;5283263;27;20045;-78
2021/12/16 10:39:23;;;;;;;0.60;0.60;;;6.00;99.90;;;;;;5269603;27;20038;-76
2021/12/16 10:42:08;;;;;;;0.85;0.85;;;6.10;99.90;;;;;;5264004;28;20020;-76
2021/12/16 10:44:41;;;;;;;0.75;0.75;;;6.10;99.90;;;;;;5263394;28;20115;-75
2021/12/16 10:47:19;;;;;;;0.88;0.88;;;6.00;99.90;;;;;;5260460;28;20036;-75
2021/12/16 10:49:52;;;;;;;0.40;0.40;;;6.00;99.90;;;;;;5241544;28;20058;-74
2021/12/16 10:52:27;;;;;;;0.60;0.60;;;6.00;99.90;;;;;;5241657;28;20032;-76
2021/12/16 10:55:06;;;;;;;0.60;0.60;;;6.00;99.90;;;;;;5241648;28;20036;-74
2021/12/16 10:57:42;;;;;;;0.40;0.40;;;6.00;99.90;;;;;;5242628;28;20040;-77
2021/12/16 11:00:18;;;;;;;0.50;0.50;;;5.90;99.90;;;;;;5242130;28;20342;-75
2021/12/16 11:02:49;;;;;;;0.50;0.50;;;6.00;99.90;;;;;;5228025;28;20115;-75
2021/12/16 11:05:29;;;;;;;1.02;1.02;;;6.10;99.90;;;;;;5261189;28;20036;-75
2021/12/16 11:08:04;;;;;;;0.90;0.90;;;6.10;99.90;;;;;;5242285;28;20047;-74
2021/12/16 11:10:37;;;;;;;0.73;0.73;;;6.10;99.90;;;;;;5246113;28;20353;-76
2021/12/16 11:13:14;;;;;;;0.57;0.57;;;6.20;99.90;;;;;;5252507;28;20032;-76
2021/12/16 11:15:52;;;;;;;0.68;0.68;;;6.20;99.90;;;;;;5249540;28;20326;-76
2021/12/16 11:18:28;;;;;;;0.50;0.50;;;6.20;99.90;;;;;;5268135;28;20035;-76
2021/12/16 11:21:09;;;;;;;0.43;0.43;;;6.30;99.90;;;;;;5250356;28;20032;-77
2021/12/16 11:23:43;;;;;;;0.50;0.50;;;6.30;99.90;;;;;;5274829;28;20042;-76
2021/12/16 11:26:28;;;;;;;0.68;0.68;;;6.50;99.90;;;;;;5266811;28;20119;-76
2021/12/16 11:28:59;;;;;;;0.70;0.70;;;6.60;99.90;;;;;;5256044;28;20043;-76
2021/12/16 11:32:56;;;;;;;0.90;0.90;;;7.10;99.90;;;;;;5303697;27;20414;-76
2021/12/16 11:35:39;;;;;;;0.47;0.47;;;6.80;99.90;;;;;;5263000;28;20038;-75
2021/12/16 11:38:32;;;;;;;0.57;0.57;;;6.60;99.90;;;;;;5264798;28;20020;-75
2021/12/16 11:41:32;;;;;;;0.47;0.47;;;6.30;99.90;;;;;;5272944;28;20055;-76
2021/12/16 11:44:25;;;;;;;0.63;0.63;;;6.50;99.90;;;;;;5263930;28;20066;-75
2021/12/16 11:47:04;;;;;;;0.68;0.68;;;7.80;99.90;;;;;;5273567;28;20138;-75
2021/12/16 11:49:45;;;;;;;0.80;0.80;;;8.40;99.90;;;;;;5264081;28;20249;-75
2021/12/16 11:52:30;;;;;;;0.60;0.60;;;8.30;99.90;;;;;;5245019;28;20218;-76
2021/12/16 11:55:07;;;;;;;0.85;0.85;;;8.70;99.90;;;;;;5280648;28;20091;-76
2021/12/16 11:57:50;;;;;;;0.93;0.93;;;9.10;99.90;;;;;;5279085;28;20399;-76
2021/12/16 12:00:30;;;;;;;0.70;0.70;;;9.60;99.90;;;;;;5258262;28;20055;-75
2021/12/16 12:03:14;;;;;;;0.90;0.90;;;8.90;99.90;;;;;;5278504;28;20469;-75
2021/12/16 12:05:51;;;;;;;0.77;0.77;;;8.50;99.90;;;;;;5253707;28;20510;-74
2021/12/16 12:08:31;;;;;;;0.60;0.60;;;7.50;99.90;;;;;;5217865;28;20039;-75
2021/12/16 12:11:20;;;;;;;0.80;0.80;;;7.30;99.90;;;;;;5225964;28;20467;-75
2021/12/16 12:14:08;;;;;;;0.50;0.50;;;7.30;99.90;;;;;;5259530;28;20506;-75
2021/12/16 12:16:46;;;;;;;0.80;0.80;;;7.30;99.90;;;;;;5262169;28;20036;-75
2021/12/16 12:19:25;;;;;;;0.70;0.70;;;7.20;99.90;;;;;;5232559;28;20092;-75
2021/12/16 12:22:08;;;;;;;0.60;0.60;;;7.20;99.90;;;;;;5265325;28;20036;-74
2021/12/16 12:24:46;;;;;;;0.63;0.63;;;7.00;99.90;;;;;;5264191;28;20153;-75
2021/12/16 12:27:28;;;;;;;0.50;0.50;;;7.00;99.90;;;;;;5241571;28;20355;-76
2021/12/16 12:30:07;;;;;;;0.70;0.70;;;7.00;99.90;;;;;;5267147;28;20035;-74
2021/12/16 12:32:44;;;;;;;0.85;0.85;;;6.90;99.90;;;;;;5260803;28;20097;-75
2021/12/16 12:35:27;;;;;;;1.27;1.02;;;6.90;99.90;;;;;;5280116;28;20046;-75
2021/12/16 12:38:04;;;;;;;0.70;0.70;;;6.90;99.90;;;;;;5272169;28;20048;-75
2021/12/16 12:40:39;;;;;;;0.75;0.75;;;6.80;99.90;;;;;;5244696;28;20307;-76
2021/12/16 12:43:17;;;;;;;0.43;0.43;;;6.80;99.90;;;;;;5271011;28;20038;-74
2021/12/16 12:45:49;;;;;;;0.50;0.50;;;6.70;99.90;;;;;;5233480;28;20035;-75
2021/12/16 12:48:20;;;;;;;0.70;0.70;;;6.70;99.90;;;;;;5262178;28;20024;-77
2021/12/16 12:50:59;;;;;;;1.50;1.40;;;6.60;99.90;;;;;;5264621;28;20042;-75
2021/12/16 12:53:50;;;;;;;0.43;0.43;;;6.70;99.90;;;;;;5246799;28;20028;-76
2021/12/16 12:56:32;;;;;;;1.27;1.27;;;6.70;99.90;;;;;;5223988;28;20032;-75
2021/12/16 12:59:12;;;;;;;0.82;0.82;;;6.60;99.90;;;;;;5225682;28;20238;-75
2021/12/16 13:01:56;;;;;;;0.77;0.77;;;6.70;99.90;;;;;;5256794;28;20028;-77
2021/12/16 13:04:41;;;;;;;0.50;0.50;;;6.70;99.90;;;;;;5236338;28;20245;-78
2021/12/16 13:07:16;;;;;;;0.60;0.60;;;6.60;99.90;;;;;;5245985;28;20291;-76
2021/12/16 13:09:58;;;;;;;0.50;0.50;;;6.60;99.90;;;;;;5228743;28;20107;-76
2021/12/16 13:13:13;;;;;;;0.60;0.60;;;6.60;99.90;;;;;;5238214;28;20047;-77
2021/12/16 13:24:39;;;;;;;0.73;0.73;;;6.50;99.90;;;;;;5248784;28;20103;-75
2021/12/16 13:32:49;;;;;;;0.82;0.82;;;6.60;99.90;;;;;;5247498;28;20101;-75
2021/12/16 13:35:33;;;;;;;0.50;0.50;;;6.60;99.90;;;;;;5247714;28;20036;-75
2021/12/16 13:38:09;;;;;;;0.70;0.70;;;6.50;99.90;;;;;;5246328;28;20119;-75
2021/12/16 13:40:43;;;;;;;0.60;0.60;;;6.60;99.90;;;;;;5265333;28;20325;-76
2021/12/16 13:43:30;;;;;;;0.70;0.70;;;6.60;99.90;;;;;;5264577;28;20047;-75
2021/12/16 13:46:27;;;;;;;1.02;1.02;;;6.60;99.90;;;;;;5263268;28;20072;-76
2021/12/16 13:58:43;;;;;;;0.60;0.60;;;6.60;99.90;;;;;;5248034;28;20032;-76
2021/12/16 14:01:36;;;;;;;0.90;0.90;;;6.60;99.90;;;;;;5238279;28;20432;-77
2021/12/16 14:07:55;;;;;;;0.70;0.70;;;6.70;99.90;;;;;;5206667;28;20489;-75
2021/12/16 14:10:56;;;;;;;0.50;0.50;;;6.70;99.90;;;;;;5248822;28;20027;-76
2021/12/16 14:40:03;;;;;;;0.45;0.45;;;6.50;99.90;;;;;;5262572;28;20035;-75
2021/12/16 14:51:03;;;;;;;0.90;0.90;;;6.40;99.90;;;;;;5242806;28;20033;-75
2021/12/16 14:53:48;;;;;;;0.50;0.50;;;6.30;99.90;;;;;;5250726;28;20439;-75
2021/12/16 14:56:36;;;;;;;0.70;0.70;;;6.30;99.90;;;;;;5245258;28;20028;-76
2021/12/16 14:59:14;;;;;;;1.80;1.70;;;6.30;99.90;;;;;;5228538;28;20032;-75
2021/12/16 15:01:53;;;;;;;0.95;0.95;;;6.30;99.90;;;;;;5246156;28;20027;-75
2021/12/16 15:04:29;;;;;;;0.82;0.82;;;6.30;99.90;;;;;;5233799;28;20055;-76
2021/12/16 15:07:07;;;;;;;1.13;1.13;;;6.30;99.90;;;;;;5235198;28;20028;-75
2021/12/16 15:09:44;;;;;;;0.70;0.70;;;6.40;99.90;;;;;;5220766;28;20178;-76
2021/12/16 15:15:12;;;;;;;1.05;1.05;;;6.50;99.90;;;;;;5243298;28;20310;-75
2021/12/16 15:42:46;;;;;;;0.57;0.57;;;6.30;99.90;;;;;;5177364;28;20033;-76
2021/12/16 15:43:55;;;;;;;0.60;0.60;;;6.30;99.90;;;;;;5159052;28;20096;-75
2021/12/16 15:46:29;;;;;;;0.60;0.60;;;6.30;99.90;;;;;;5172804;28;20592;-76
2021/12/16 15:49:01;;;;;;;0.50;0.50;;;6.20;99.90;;;;;;5161808;28;20101;-76
2021/12/16 15:51:32;;;;;;;0.70;0.70;;;6.20;99.90;;;;;;5140236;28;20060;-76
2021/12/16 15:54:04;;;;;;;0.65;0.65;;;6.20;99.90;;;;;;5174156;28;20374;-76
2021/12/16 15:56:41;;;;;;;0.68;0.68;;;6.20;99.90;;;;;;5173811;28;20109;-76
2021/12/16 15:59:18;;;;;;;0.50;0.50;;;6.20;99.90;;;;;;5159661;28;20738;-76
2021/12/16 16:01:53;;;;;;;0.70;0.70;;;6.30;99.90;;;;;;5157311;28;20026;-76
2021/12/16 16:04:37;;;;;;;0.90;0.90;;;6.30;99.90;;;;;;5242135;28;20047;-75
2021/12/16 16:07:20;;;;;;;0.70;0.70;;;6.20;99.90;;;;;;5225742;28;20094;-75
2021/12/16 16:09:55;;;;;;;0.85;0.85;;;6.20;99.90;;;;;;5250428;28;20455;-76
2021/12/16 16:12:31;;;;;;;0.43;0.43;;;6.10;99.90;;;;;;5254635;28;20035;-76
2021/12/16 16:15:23;;;;;;;1.02;1.02;;;6.20;99.90;;;;;;5236170;28;20031;-77
2021/12/16 16:18:32;;;;;;;0.80;0.80;;;6.20;99.90;;;;;;5241722;28;20110;-75
2021/12/16 16:20:52;;;;;;;0.52;0.52;;;6.10;99.90;;;;;;5256067;28;20325;-76
2021/12/16 16:23:28;;;;;;;0.60;0.60;;;6.10;99.90;;;;;;5240683;28;20078;-76
2021/12/16 16:26:08;;;;;;;0.60;0.60;;;6.10;99.90;;;;;;5244462;28;20039;-75
2021/12/16 16:28:42;;;;;;;1.20;1.20;;;6.00;99.90;;;;;;5211792;28;20047;-76
2021/12/16 16:31:19;;;;;;;0.50;0.50;;;6.00;99.90;;;;;;5244726;28;20218;-75
2021/12/16 16:34:02;;;;;;;0.60;0.60;;;6.00;99.90;;;;;;5244508;28;20040;-76
2021/12/16 16:36:47;;;;;;;0.60;0.60;;;6.00;99.90;;;;;;5262066;28;20461;-75
2021/12/16 16:39:23;;;;;;;1.25;1.23;;;6.00;99.90;;;;;;5262635;28;20069;-76
2021/12/16 16:42:06;;;;;;;0.55;0.55;;;6.00;99.90;;;;;;5214537;28;20028;-76
2021/12/16 16:44:38;;;;;;;0.68;0.68;;;6.00;99.90;;;;;;5245003;28;20262;-75
2021/12/16 16:47:25;;;;;;;0.50;0.50;;;6.00;99.90;;;;;;5227635;28;20576;-75
2021/12/16 16:50:06;;;;;;;0.95;0.95;;;6.10;99.90;;;;;;5245610;28;20234;-75
2021/12/16 16:52:45;;;;;;;0.70;0.70;;;6.20;99.90;;;;;;5254587;28;20044;-75
2021/12/16 16:55:22;;;;;;;0.77;0.77;;;6.20;99.90;;;;;;5217834;28;20024;-76
2021/12/16 16:58:09;;;;;;;0.63;0.63;;;6.20;99.90;;;;;;5244413;28;20044;-76
2021/12/16 17:00:47;;;;;;;0.73;0.73;;;6.20;99.90;;;;;;5231336;28;20101;-76
2021/12/16 17:03:24;;;;;;;0.30;0.30;;;6.30;99.90;;;;;;5264731;28;20054;-76
2021/12/16 17:06:03;;;;;;;0.70;0.70;;;6.30;99.90;;;;;;5252864;28;20549;-77
2021/12/16 17:08:40;;;;;;;0.50;0.50;;;6.20;99.90;;;;;;5245941;28;20024;-76
2021/12/16 17:11:17;;;;;;;0.50;0.50;;;6.20;99.90;;;;;;5245643;28;20035;-78
2021/12/16 17:14:12;;;;;;;0.40;0.40;;;6.30;99.90;;;;;;5263611;28;20095;-76
2021/12/16 17:19:52;;;;;;;0.55;0.55;;;6.20;99.90;;;;;;5247156;28;19915;-76
2021/12/16 17:22:44;;;;;;;0.57;0.57;;;6.20;99.90;;;;;;5260340;28;20373;-76
2021/12/16 17:25:20;;;;;;;0.60;0.60;;;6.20;99.90;;;;;;5222689;28;20039;-76
2021/12/16 17:28:01;;;;;;;0.47;0.47;;;6.20;99.90;;;;;;5222909;28;20040;-76
2021/12/16 17:30:38;;;;;;;0.50;0.50;;;6.20;99.90;;;;;;5222065;28;20055;-77
2021/12/16 17:33:12;;;;;;;0.50;0.50;;;6.20;99.90;;;;;;5222518;28;20036;-75
2021/12/16 17:35:49;;;;;;;0.75;0.75;;;6.20;99.90;;;;;;5226917;28;20123;-75
2021/12/16 17:38:29;;;;;;;0.50;0.50;;;6.10;99.90;;;;;;5254200;28;20107;-75
2021/12/16 17:41:09;;;;;;;0.60;0.60;;;6.10;99.90;;;;;;5236815;28;20039;-75
2021/12/16 17:43:43;;;;;;;1.02;1.02;;;6.10;99.90;;;;;;5233838;28;20040;-75
2021/12/16 17:46:19;;;;;;;0.80;0.80;;;6.10;99.90;;;;;;5237053;28;20524;-75
2021/12/16 17:48:52;;;;;;;0.55;0.55;;;6.20;99.90;;;;;;5236691;28;20299;-76
2021/12/16 17:51:29;;;;;;;0.70;0.70;;;6.10;99.90;;;;;;5261037;28;20036;-77
2021/12/16 17:54:07;;;;;;;0.50;0.50;;;6.10;99.90;;;;;;5243261;28;20085;-76
2021/12/16 17:56:49;;;;;;;0.60;0.60;;;6.20;99.90;;;;;;5257257;28;20036;-76
2021/12/16 17:59:30;;;;;;;0.50;0.50;;;6.20;99.90;;;;;;5244756;28;20035;-76
2021/12/16 18:02:07;;;;;;;0.40;0.40;;;6.40;99.90;;;;;;5239184;28;20089;-76
2021/12/16 18:04:43;;;;;;;0.50;0.50;;;6.30;99.90;;;;;;5211395;28;20060;-75
2021/12/16 18:07:17;;;;;;;0.50;0.50;;;6.40;99.90;;;;;;5240447;28;20234;-75
2021/12/16 18:09:54;;;;;;;0.60;0.60;;;6.40;99.90;;;;;;5242659;28;20084;-76
2021/12/16 18:12:30;;;;;;;0.70;0.70;;;6.40;99.90;;;;;;5221923;28;20092;-76
2021/12/16 18:15:11;;;;;;;0.50;0.50;;;6.30;99.90;;;;;;5239537;28;20108;-76